createdAt,value
2023-04-26T00:00:14.525Z,97756.56
2023-04-26T00:02:42.039Z,97758.13
2023-04-26T00:05:10.766Z,97752.06
2023-04-26T00:07:39.148Z,97760.13
2023-04-26T00:10:07.649Z,97762.16
2023-04-26T00:12:36.274Z,97754.00
2023-04-26T00:15:04.236Z,97752.38
2023-04-26T00:17:33.104Z,97751.84
2023-04-26T00:20:01.385Z,97758.59
2023-04-26T00:22:28.822Z,97762.09
2023-04-26T00:24:56.255Z,97781.06
2023-04-26T00:27:23.726Z,97766.63
2023-04-26T00:29:51.184Z,97770.31
2023-04-26T00:32:18.674Z,97767.31
2023-04-26T00:34:47.522Z,97770.59
2023-04-26T00:37:15.014Z,97780.44
2023-04-26T00:39:42.430Z,97776.16
2023-04-26T00:42:09.870Z,97762.31
2023-04-26T00:44:39.910Z,97757.09
2023-04-26T00:47:07.352Z,97757.06
2023-04-26T00:49:35.234Z,97774.91
2023-04-26T00:52:04.480Z,97762.09
2023-04-26T00:54:32.001Z,97756.91
2023-04-26T00:57:00.510Z,97757.22
2023-04-26T00:59:28.054Z,97753.56
2023-04-26T01:01:55.933Z,97759.06
2023-04-26T01:04:26.201Z,97766.38
2023-04-26T01:06:53.780Z,97769.88
2023-04-26T01:09:23.208Z,97762.75
2023-04-26T01:11:52.938Z,97775.44
2023-04-26T01:14:20.571Z,97772.31
2023-04-26T01:16:48.591Z,97775.97
2023-04-26T01:19:16.443Z,97781.88
2023-04-26T01:21:44.043Z,97780.66
2023-04-26T01:24:14.015Z,97774.97
2023-04-26T01:26:45.578Z,97780.47
2023-04-26T01:29:17.337Z,97795.72
2023-04-26T01:31:45.441Z,97801.13
2023-04-26T01:34:12.968Z,97792.72
2023-04-26T01:36:40.481Z,97791.97
2023-04-26T01:39:09.092Z,97784.72
2023-04-26T01:41:37.980Z,97779.19
2023-04-26T01:44:05.903Z,97782.75
2023-04-26T01:46:33.425Z,97799.97
2023-04-26T01:49:01.023Z,97798.16
2023-04-26T01:51:28.486Z,97781.59
2023-04-26T01:53:56.072Z,97808.94
2023-04-26T01:56:24.911Z,97814.03
2023-04-26T01:58:55.436Z,97810.63
2023-04-26T02:01:23.164Z,97816.19
2023-04-26T02:03:51.174Z,97805.13
2023-04-26T02:06:18.657Z,97795.09
2023-04-26T02:08:46.309Z,97803.47
2023-04-26T02:11:13.780Z,97818.56
2023-04-26T02:13:41.299Z,97827.38
2023-04-26T02:16:10.226Z,97828.56
2023-04-26T02:18:37.770Z,97819.88
2023-04-26T02:21:09.075Z,97801.00
2023-04-26T02:23:36.512Z,97804.97
2023-04-26T02:26:04.379Z,97801.78
2023-04-26T02:28:32.054Z,97815.03
2023-04-26T02:30:59.537Z,97829.28
2023-04-26T02:33:28.340Z,97806.44
2023-04-26T02:35:55.633Z,97808.22
2023-04-26T02:38:23.229Z,97801.47
2023-04-26T02:40:53.449Z,97795.97
2023-04-26T02:43:20.898Z,97800.13
2023-04-26T02:45:48.321Z,97810.38
2023-04-26T02:48:15.791Z,97808.25
2023-04-26T02:50:44.597Z,97818.41
2023-04-26T02:53:12.479Z,97799.47
2023-04-26T02:55:40.326Z,97793.31
2023-04-26T02:58:07.790Z,97790.34
2023-04-26T03:00:35.351Z,97798.63
2023-04-26T03:03:03.125Z,97792.16
2023-04-26T03:05:30.787Z,97791.00
2023-04-26T03:07:59.609Z,97790.66
2023-04-26T03:10:26.920Z,97796.47
2023-04-26T03:12:54.401Z,97789.16
2023-04-26T03:15:22.162Z,97791.69
2023-04-26T03:17:49.775Z,97794.34
2023-04-26T03:20:17.492Z,97799.13
2023-04-26T03:22:44.918Z,97799.97
2023-04-26T03:25:15.239Z,97795.66
2023-04-26T03:27:42.794Z,97800.47
2023-04-26T03:30:10.986Z,97802.81
2023-04-26T03:32:38.482Z,97799.31
2023-04-26T03:35:06.713Z,97804.31
2023-04-26T03:37:34.166Z,97803.31
2023-04-26T03:40:01.652Z,97804.31
2023-04-26T03:42:30.625Z,97811.28
2023-04-26T03:44:58.050Z,97808.63
2023-04-26T03:47:25.681Z,97805.28
2023-04-26T03:49:53.175Z,97815.13
2023-04-26T03:52:20.781Z,97813.47
2023-04-26T03:54:48.212Z,97811.44
2023-04-26T03:57:15.724Z,97812.28
2023-04-26T03:59:44.555Z,97810.81
2023-04-26T04:02:11.883Z,97805.81
2023-04-26T04:04:39.649Z,97809.47
2023-04-26T04:07:07.489Z,97809.28
2023-04-26T04:09:34.936Z,97810.47
2023-04-26T04:12:02.943Z,97806.81
2023-04-26T04:14:30.385Z,97810.13
2023-04-26T04:16:59.574Z,97811.44
2023-04-26T04:19:27.090Z,97809.63
2023-04-26T04:21:54.526Z,97815.63
2023-04-26T04:24:21.979Z,97805.63
2023-04-26T04:26:49.418Z,97810.44
2023-04-26T04:29:16.855Z,97814.78
2023-04-26T04:31:44.418Z,97820.25
2023-04-26T04:34:13.223Z,97838.03
2023-04-26T04:36:40.655Z,97833.53
2023-04-26T04:39:13.613Z,97828.06
2023-04-26T04:41:47.572Z,97844.00
2023-04-26T04:44:16.522Z,97834.72
2023-04-26T04:46:44.304Z,97840.53
2023-04-26T04:49:13.486Z,97825.59
2023-04-26T04:51:40.947Z,97838.06
2023-04-26T04:54:12.809Z,97835.25
2023-04-26T04:56:40.611Z,97839.91
2023-04-26T04:59:08.623Z,97834.22
2023-04-26T05:01:36.955Z,97839.41
2023-04-26T05:04:04.602Z,97834.06
2023-04-26T05:06:33.670Z,97839.03
2023-04-26T05:09:01.365Z,97838.97
2023-04-26T05:11:28.836Z,97841.50
2023-04-26T05:13:56.658Z,97848.81
2023-04-26T05:16:24.343Z,97858.38
2023-04-26T05:18:51.890Z,97881.56
2023-04-26T05:21:19.298Z,97891.78
2023-04-26T05:23:48.171Z,97880.50
2023-04-26T05:26:16.665Z,97879.25
2023-04-26T05:28:44.220Z,97879.31
2023-04-26T05:31:12.828Z,97865.38
2023-04-26T05:33:41.079Z,97867.56
2023-04-26T05:36:09.446Z,97865.50
2023-04-26T05:38:38.066Z,97872.78
2023-04-26T05:41:06.916Z,97882.69
2023-04-26T05:43:34.290Z,97874.03
2023-04-26T05:46:02.058Z,97872.34
2023-04-26T05:48:30.042Z,97901.13
2023-04-26T05:50:57.492Z,97902.09
2023-04-26T05:53:24.990Z,97911.84
2023-04-26T05:55:52.535Z,97908.19
2023-04-26T05:58:21.334Z,97888.03
2023-04-26T06:00:48.690Z,97913.06
2023-04-26T06:03:16.736Z,97906.06
2023-04-26T06:05:44.478Z,97915.06
2023-04-26T06:08:12.130Z,97911.28
2023-04-26T06:10:39.610Z,97900.94
2023-04-26T06:13:07.067Z,97917.72
2023-04-26T06:15:35.869Z,97916.28
2023-04-26T06:18:03.427Z,97920.47
2023-04-26T06:20:30.888Z,97920.22
2023-04-26T06:22:58.398Z,97928.97
2023-04-26T06:25:25.859Z,97925.25
2023-04-26T06:27:53.809Z,97923.09
2023-04-26T06:30:21.251Z,97920.91
2023-04-26T06:32:50.326Z,97909.94
2023-04-26T06:35:18.119Z,97917.59
2023-04-26T06:37:45.733Z,97927.59
2023-04-26T06:40:15.770Z,97925.69
2023-04-26T06:42:43.364Z,97917.25
2023-04-26T06:45:12.400Z,97924.09
2023-04-26T06:47:39.930Z,97910.31
2023-04-26T06:50:10.697Z,97914.81
2023-04-26T06:52:38.749Z,97906.81
2023-04-26T06:55:07.080Z,97913.97
2023-04-26T06:57:34.543Z,97911.66
2023-04-26T07:00:02.880Z,97906.47
2023-04-26T07:02:30.464Z,97902.13
2023-04-26T07:04:58.528Z,97893.00
2023-04-26T07:07:27.625Z,97894.31
2023-04-26T07:09:55.158Z,97896.78
2023-04-26T07:12:22.618Z,97885.84
2023-04-26T07:14:50.107Z,97894.66
2023-04-26T07:17:17.742Z,97892.13
2023-04-26T07:19:45.190Z,97895.47
2023-04-26T07:22:12.647Z,97900.94
2023-04-26T07:24:41.435Z,97877.28
2023-04-26T07:27:08.758Z,97891.03
2023-04-26T07:29:36.159Z,97886.66
2023-04-26T07:32:03.808Z,97881.25
2023-04-26T07:34:31.459Z,97886.03
2023-04-26T07:36:59.018Z,97885.69
2023-04-26T07:39:26.903Z,97884.63
2023-04-26T07:41:56.301Z,97877.41
2023-04-26T07:44:23.740Z,97876.09
2023-04-26T07:46:51.906Z,97882.75
2023-04-26T07:49:19.411Z,97881.03
2023-04-26T07:51:47.143Z,97887.81
2023-04-26T07:54:14.618Z,97890.97
2023-04-26T07:56:42.124Z,97879.25
2023-04-26T07:59:10.954Z,97890.69
2023-04-26T08:01:38.837Z,97892.31
2023-04-26T08:04:06.791Z,97886.28
2023-04-26T08:06:34.396Z,97869.16
2023-04-26T08:09:01.840Z,97879.41
2023-04-26T08:11:29.322Z,97870.94
2023-04-26T08:13:56.907Z,97892.50
2023-04-26T08:16:25.711Z,97883.38
2023-04-26T08:18:53.064Z,97866.91
2023-04-26T08:21:20.515Z,97863.13
2023-04-26T08:23:48.107Z,97863.72
2023-04-26T08:26:15.551Z,97856.09
2023-04-26T08:28:43.002Z,97872.38
2023-04-26T08:31:11.109Z,97862.97
2023-04-26T08:33:39.944Z,97878.19
2023-04-26T08:36:08.143Z,97886.72
2023-04-26T08:38:36.604Z,97885.09
2023-04-26T08:41:06.080Z,97874.94
2023-04-26T08:43:36.713Z,97877.00
2023-04-26T08:46:08.573Z,97869.69
2023-04-26T08:48:38.413Z,97864.78
2023-04-26T08:51:08.562Z,97862.94
2023-04-26T08:53:36.842Z,97845.63
2023-04-26T08:56:05.912Z,97862.63
2023-04-26T08:58:33.453Z,97856.16
2023-04-26T09:01:03.701Z,97843.44
2023-04-26T09:03:32.231Z,97861.25
2023-04-26T09:06:02.541Z,97865.41
2023-04-26T09:08:36.087Z,97886.19
2023-04-26T09:11:04.605Z,97889.16
2023-04-26T09:13:32.068Z,97885.78
2023-04-26T09:16:01.326Z,97898.53
2023-04-26T09:18:31.207Z,97887.31
2023-04-26T09:21:07.627Z,97877.69
2023-04-26T09:23:36.561Z,97871.22
2023-04-26T09:26:22.397Z,97879.69
2023-04-26T09:28:50.227Z,97875.28
2023-04-26T09:31:38.680Z,97892.41
2023-04-26T09:34:06.404Z,97897.81
2023-04-26T09:36:33.893Z,97888.38
2023-04-26T09:39:03.865Z,97882.56
2023-04-26T09:41:43.688Z,97880.28
2023-04-26T09:44:23.205Z,97874.25
2023-04-26T09:47:02.203Z,97880.56
2023-04-26T09:49:32.843Z,97884.53
2023-04-26T09:52:04.784Z,97891.25
2023-04-26T09:54:45.620Z,97897.25
2023-04-26T09:57:14.560Z,97885.41
2023-04-26T09:59:43.820Z,97894.94
2023-04-26T10:02:17.259Z,97899.88
2023-04-26T10:04:50.018Z,97880.91
2023-04-26T10:07:19.543Z,97886.66
2023-04-26T10:09:49.276Z,97888.44
2023-04-26T10:12:18.208Z,97882.34
2023-04-26T10:14:46.765Z,97873.72
2023-04-26T10:17:14.988Z,97884.28
2023-04-26T10:19:44.911Z,97884.81
2023-04-26T10:22:17.138Z,97874.88
2023-04-26T10:24:45.104Z,97888.91
2023-04-26T10:27:14.050Z,97889.06
2023-04-26T10:30:07.401Z,97884.28
2023-04-26T10:33:16.255Z,97893.41
2023-04-26T10:36:07.389Z,97893.13
2023-04-26T10:38:36.147Z,97877.06
2023-04-26T10:41:23.744Z,97897.00
2023-04-26T10:43:52.756Z,97893.13
2023-04-26T10:46:40.655Z,97894.22
2023-04-26T10:49:18.986Z,97896.25
2023-04-26T10:52:12.771Z,97892.91
2023-04-26T10:54:56.462Z,97892.47
2023-04-26T10:57:25.675Z,97886.84
2023-04-26T11:00:32.692Z,97886.84
2023-04-26T11:03:04.750Z,97866.19
2023-04-26T11:05:53.949Z,97875.81
2023-04-26T11:08:25.454Z,97850.56
2023-04-26T11:10:59.641Z,97857.34
2023-04-26T11:13:27.222Z,97872.25
2023-04-26T11:16:03.151Z,97881.56
2023-04-26T11:18:31.218Z,97876.38
2023-04-26T11:20:59.430Z,97878.06
2023-04-26T11:23:29.140Z,97863.22
2023-04-26T11:25:58.870Z,97870.81
2023-04-26T11:28:26.438Z,97850.22
2023-04-26T11:30:54.033Z,97855.31
2023-04-26T11:33:23.514Z,97856.03
2023-04-26T11:35:51.679Z,97855.69
2023-04-26T11:38:22.604Z,97853.38
2023-04-26T11:40:56.003Z,97849.38
2023-04-26T11:43:23.555Z,97843.63
2023-04-26T11:45:51.013Z,97848.03
2023-04-26T11:48:20.091Z,97838.97
2023-04-26T11:50:49.433Z,97832.66
2023-04-26T11:53:17.309Z,97857.13
2023-04-26T11:55:46.147Z,97843.47
2023-04-26T11:58:14.848Z,97853.66
2023-04-26T12:00:58.590Z,97845.78
2023-04-26T12:03:31.162Z,97849.44
2023-04-26T12:06:00.811Z,97848.69
2023-04-26T12:08:28.880Z,97850.16
2023-04-26T12:11:00.702Z,97840.50
2023-04-26T12:13:29.328Z,97835.56
2023-04-26T12:15:56.739Z,97837.41
2023-04-26T12:18:31.248Z,97843.31
2023-04-26T12:21:01.210Z,97836.13
2023-04-26T12:23:28.761Z,97847.00
2023-04-26T12:26:01.916Z,97843.03
2023-04-26T12:28:29.443Z,97844.28
2023-04-26T12:30:57.238Z,97838.88
2023-04-26T12:33:25.289Z,97825.78
2023-04-26T12:35:52.913Z,97832.28
2023-04-26T12:38:21.950Z,97830.06
2023-04-26T12:40:49.596Z,97834.75
2023-04-26T12:43:17.552Z,97837.16
2023-04-26T12:45:45.355Z,97827.81
2023-04-26T12:48:13.021Z,97820.50
2023-04-26T12:50:40.727Z,97808.63
2023-04-26T12:53:08.173Z,97813.97
2023-04-26T12:55:36.999Z,97820.63
2023-04-26T12:58:04.459Z,97819.72
2023-04-26T13:00:32.144Z,97810.19
2023-04-26T13:02:59.750Z,97823.16
2023-04-26T13:05:28.725Z,97809.72
2023-04-26T13:08:00.324Z,97807.94
2023-04-26T13:10:27.917Z,97803.22
2023-04-26T13:12:57.760Z,97818.06
2023-04-26T13:15:26.714Z,97809.84
2023-04-26T13:17:54.720Z,97817.13
2023-04-26T13:20:23.711Z,97810.53
2023-04-26T13:22:53.084Z,97820.44
2023-04-26T13:25:20.575Z,97811.97
2023-04-26T13:27:48.127Z,97812.81
2023-04-26T13:30:17.193Z,97817.06
2023-04-26T13:32:44.754Z,97808.88
2023-04-26T13:35:12.933Z,97811.06
2023-04-26T13:37:40.539Z,97806.31
2023-04-26T13:40:11.095Z,97798.88
2023-04-26T13:42:38.633Z,97801.66
2023-04-26T13:45:09.348Z,97795.13
2023-04-26T13:47:38.484Z,97802.97
2023-04-26T13:50:06.688Z,97793.31
2023-04-26T13:52:34.452Z,97812.16
2023-04-26T13:55:02.931Z,97804.66
2023-04-26T13:57:30.339Z,97805.03
2023-04-26T13:59:57.864Z,97819.19
2023-04-26T14:02:25.650Z,97821.47
2023-04-26T14:04:54.770Z,97817.56
2023-04-26T14:07:22.296Z,97803.16
2023-04-26T14:09:51.461Z,97808.59
2023-04-26T14:12:18.936Z,97805.09
2023-04-26T14:14:47.835Z,97802.44
2023-04-26T14:17:15.341Z,97798.63
2023-04-26T14:19:42.866Z,97811.47
2023-04-26T14:22:17.379Z,97799.69
2023-04-26T14:24:44.919Z,97808.47
2023-04-26T14:27:12.804Z,97808.44
2023-04-26T14:29:40.346Z,97809.19
2023-04-26T14:32:08.192Z,97802.75
2023-04-26T14:34:39.007Z,97803.91
2023-04-26T14:37:06.896Z,97788.56
2023-04-26T14:39:35.897Z,97789.50
2023-04-26T14:42:03.985Z,97793.81
2023-04-26T14:44:31.496Z,97791.75
2023-04-26T14:46:58.979Z,97799.38
2023-04-26T14:49:26.515Z,97791.38
2023-04-26T14:51:54.040Z,97779.38
2023-04-26T14:54:21.519Z,97790.75
2023-04-26T14:56:51.275Z,97777.50
2023-04-26T14:59:18.798Z,97783.34
2023-04-26T15:01:46.295Z,97774.63
2023-04-26T15:04:13.966Z,97783.09
2023-04-26T15:06:41.703Z,97792.56
2023-04-26T15:09:09.191Z,97789.50
2023-04-26T15:11:36.641Z,97783.28
2023-04-26T15:14:05.552Z,97788.16
2023-04-26T15:16:33.344Z,97792.75
2023-04-26T15:19:01.441Z,97785.66
2023-04-26T15:21:29.520Z,97797.00
2023-04-26T15:23:57.145Z,97780.09
2023-04-26T15:26:25.824Z,97778.25
2023-04-26T15:28:53.248Z,97788.28
2023-04-26T15:31:22.410Z,97777.91
2023-04-26T15:33:49.910Z,97780.78
2023-04-26T15:36:19.726Z,97786.34
2023-04-26T15:38:48.566Z,97772.03
2023-04-26T15:41:16.318Z,97776.19
2023-04-26T15:43:43.842Z,97779.50
2023-04-26T15:46:14.092Z,97782.44
2023-04-26T15:48:42.960Z,97783.53
2023-04-26T15:51:10.396Z,97784.13
2023-04-26T15:53:43.411Z,97780.09
2023-04-26T15:56:14.928Z,97776.38
2023-04-26T15:58:43.624Z,97774.13
2023-04-26T16:01:11.139Z,97776.31
2023-04-26T16:03:39.031Z,97784.34
2023-04-26T16:06:09.352Z,97781.69
2023-04-26T16:08:40.659Z,97792.66
2023-04-26T16:11:08.766Z,97784.06
2023-04-26T16:13:37.113Z,97786.19
2023-04-26T16:16:07.812Z,97784.38
2023-04-26T16:18:35.770Z,97785.13
2023-04-26T16:21:09.497Z,97778.09
2023-04-26T16:23:37.823Z,97783.69
2023-04-26T16:26:05.877Z,97767.09
2023-04-26T16:28:33.461Z,97774.75
2023-04-26T16:31:01.102Z,97769.38
2023-04-26T16:33:28.718Z,97766.97
2023-04-26T16:35:56.604Z,97774.47
2023-04-26T16:38:25.446Z,97779.94
2023-04-26T16:40:57.676Z,97770.75
2023-04-26T16:43:26.711Z,97781.91
2023-04-26T16:46:01.698Z,97784.00
2023-04-26T16:48:31.961Z,97778.69
2023-04-26T16:50:59.491Z,97781.09
2023-04-26T16:53:28.426Z,97769.66
2023-04-26T16:55:56.032Z,97766.41
2023-04-26T16:58:23.962Z,97775.31
2023-04-26T17:00:51.800Z,97771.59
2023-04-26T17:03:19.599Z,97776.75
2023-04-26T17:05:49.141Z,97786.53
2023-04-26T17:08:17.548Z,97779.28
2023-04-26T17:10:47.493Z,97785.06
2023-04-26T17:13:15.121Z,97778.88
2023-04-26T17:15:43.620Z,97781.56
2023-04-26T17:18:11.580Z,97786.28
2023-04-26T17:20:39.089Z,97789.31
2023-04-26T17:23:08.389Z,97780.69
2023-04-26T17:25:36.081Z,97776.16
2023-04-26T17:28:05.232Z,97794.41
2023-04-26T17:30:32.745Z,97784.41
2023-04-26T17:33:00.355Z,97795.88
2023-04-26T17:35:28.221Z,97790.00
2023-04-26T17:37:55.741Z,97790.19
2023-04-26T17:40:23.191Z,97799.34
2023-04-26T17:42:50.873Z,97804.97
2023-04-26T17:45:19.853Z,97801.94
2023-04-26T17:47:47.457Z,97802.69
2023-04-26T17:50:15.543Z,97812.00
2023-04-26T17:52:42.983Z,97810.84
2023-04-26T17:55:10.622Z,97827.56
2023-04-26T17:57:38.140Z,97818.63
2023-04-26T18:00:09.105Z,97821.69
2023-04-26T18:02:38.451Z,97817.16
2023-04-26T18:05:08.343Z,97818.00
2023-04-26T18:07:35.891Z,97813.56
2023-04-26T18:10:03.949Z,97829.28
2023-04-26T18:12:31.961Z,97823.53
2023-04-26T18:14:59.549Z,97837.44
2023-04-26T18:17:27.137Z,97841.78
2023-04-26T18:19:56.292Z,97836.00
2023-04-26T18:22:23.755Z,97830.66
2023-04-26T18:24:51.196Z,97835.16
2023-04-26T18:27:18.713Z,97837.13
2023-04-26T18:29:46.231Z,97844.16
2023-04-26T18:32:13.787Z,97850.66
2023-04-26T18:34:41.262Z,97844.91
2023-04-26T18:37:10.074Z,97841.66
2023-04-26T18:39:37.576Z,97839.16
2023-04-26T18:42:05.495Z,97846.75
2023-04-26T18:44:33.165Z,97853.16
2023-04-26T18:47:00.638Z,97851.06
2023-04-26T18:49:28.360Z,97848.56
2023-04-26T18:51:57.110Z,97849.56
2023-04-26T18:54:26.230Z,97853.88
2023-04-26T18:56:54.052Z,97856.91
2023-04-26T18:59:21.554Z,97861.84
2023-04-26T19:01:49.623Z,97859.72
2023-04-26T19:04:17.266Z,97863.22
2023-04-26T19:06:44.800Z,97862.78
2023-04-26T19:09:13.984Z,97863.34
2023-04-26T19:11:42.780Z,97868.09
2023-04-26T19:14:10.357Z,97868.84
2023-04-26T19:16:38.262Z,97872.00
2023-04-26T19:19:06.003Z,97869.22
2023-04-26T19:21:33.680Z,97871.47
2023-04-26T19:24:01.182Z,97876.44
2023-04-26T19:26:28.660Z,97881.56
2023-04-26T19:28:57.466Z,97881.28
2023-04-26T19:31:25.072Z,97879.78
2023-04-26T19:33:52.634Z,97881.56
2023-04-26T19:36:20.140Z,97887.50
2023-04-26T19:38:48.314Z,97883.75
2023-04-26T19:41:15.802Z,97879.47
2023-04-26T19:43:43.281Z,97883.75
2023-04-26T19:46:15.494Z,97872.38
2023-04-26T19:48:43.302Z,97869.25
2023-04-26T19:51:15.642Z,97877.66
2023-04-26T19:53:43.248Z,97875.16
2023-04-26T19:56:11.823Z,97874.97
2023-04-26T19:58:39.659Z,97881.22
2023-04-26T20:01:07.542Z,97880.38
2023-04-26T20:03:38.038Z,97883.97
2023-04-26T20:06:05.910Z,97894.41
2023-04-26T20:08:33.444Z,97896.53
2023-04-26T20:11:05.322Z,97889.06
2023-04-26T20:13:33.189Z,97894.03
2023-04-26T20:16:00.772Z,97893.84
2023-04-26T20:18:28.287Z,97889.03
2023-04-26T20:20:57.088Z,97901.97
2023-04-26T20:23:24.569Z,97904.38
2023-04-26T20:25:52.230Z,97901.50
2023-04-26T20:28:19.854Z,97896.81
2023-04-26T20:30:47.431Z,97902.41
2023-04-26T20:33:14.969Z,97895.91
2023-04-26T20:35:42.643Z,97906.94
2023-04-26T20:38:11.631Z,97899.88
2023-04-26T20:40:39.172Z,97911.44
2023-04-26T20:43:06.850Z,97909.66
2023-04-26T20:45:34.625Z,97914.47
2023-04-26T20:48:02.120Z,97903.78
2023-04-26T20:50:29.648Z,97906.44
2023-04-26T20:52:57.183Z,97910.97
2023-04-26T20:55:26.168Z,97903.22
2023-04-26T20:57:53.654Z,97905.78
2023-04-26T21:00:21.627Z,97911.72
2023-04-26T21:02:49.211Z,97912.72
2023-04-26T21:05:16.909Z,97911.72
2023-04-26T21:07:44.358Z,97915.84
2023-04-26T21:10:12.007Z,97910.66
2023-04-26T21:12:41.659Z,97914.63
2023-04-26T21:15:10.047Z,97909.66
2023-04-26T21:17:37.587Z,97913.06
2023-04-26T21:20:05.970Z,97910.84
2023-04-26T21:22:33.678Z,97914.16
2023-04-26T21:25:01.158Z,97908.91
2023-04-26T21:27:28.628Z,97906.44
2023-04-26T21:29:57.468Z,97912.56
2023-04-26T21:32:25.214Z,97910.09
2023-04-26T21:34:52.673Z,97898.94
2023-04-26T21:37:20.196Z,97904.91
2023-04-26T21:39:47.674Z,97899.84
2023-04-26T21:42:15.534Z,97910.34
2023-04-26T21:44:42.989Z,97915.88
2023-04-26T21:47:11.841Z,97914.19
2023-04-26T21:49:40.166Z,97913.91
2023-04-26T21:52:07.694Z,97907.56
2023-04-26T21:54:35.750Z,97914.13
2023-04-26T21:57:04.910Z,97910.31
2023-04-26T21:59:32.499Z,97915.19
2023-04-26T22:02:00.273Z,97913.75
2023-04-26T22:04:29.348Z,97915.56
2023-04-26T22:06:57.101Z,97917.63
2023-04-26T22:09:24.555Z,97914.31
2023-04-26T22:11:51.980Z,97915.47
2023-04-26T22:14:19.528Z,97918.50
2023-04-26T22:16:47.057Z,97927.38
2023-04-26T22:19:14.555Z,97924.31
2023-04-26T22:21:43.382Z,97926.22
2023-04-26T22:24:10.928Z,97934.06
2023-04-26T22:26:38.455Z,97932.75
2023-04-26T22:29:06.963Z,97927.78
2023-04-26T22:31:34.463Z,97932.44
2023-04-26T22:34:02.035Z,97942.53
2023-04-26T22:36:29.506Z,97937.00
2023-04-26T22:38:59.352Z,97938.84
2023-04-26T22:41:26.984Z,97944.19
2023-04-26T22:43:54.476Z,97938.38
2023-04-26T22:46:21.998Z,97939.25
2023-04-26T22:48:49.541Z,97942.91
2023-04-26T22:51:17.004Z,97941.44
2023-04-26T22:53:44.576Z,97949.81
2023-04-26T22:56:13.440Z,97944.41
2023-04-26T22:58:40.928Z,97945.78
2023-04-26T23:01:08.431Z,97950.16
2023-04-26T23:03:36.560Z,97953.47
2023-04-26T23:06:04.623Z,97955.94
2023-04-26T23:08:32.118Z,97941.50
2023-04-26T23:10:59.568Z,97939.84
2023-04-26T23:13:29.432Z,97941.84
2023-04-26T23:15:56.954Z,97946.81
2023-04-26T23:18:26.522Z,97953.75
2023-04-26T23:20:53.999Z,97953.59
2023-04-26T23:23:21.457Z,97959.75
2023-04-26T23:25:48.994Z,97955.78
2023-04-26T23:28:16.525Z,97957.88
2023-04-26T23:30:45.482Z,97962.59
2023-04-26T23:33:13.057Z,97962.28
2023-04-26T23:35:42.168Z,97965.44
2023-04-26T23:38:09.709Z,97956.28
2023-04-26T23:40:37.848Z,97961.13
2023-04-26T23:43:06.239Z,97968.97
2023-04-26T23:45:33.848Z,97962.81
2023-04-26T23:48:02.657Z,97964.09
2023-04-26T23:50:30.160Z,97966.13
2023-04-26T23:52:57.593Z,97968.50
2023-04-26T23:55:25.026Z,97970.31
2023-04-26T23:57:52.488Z,97965.00
